CheckWX is a tool to help pilots better visualize weather data.  It is not intended as a substitute for an official pre-flight weather briefing.

12:22:15 UTC

NFNA TAF
Nausori International Airport
Nausori, Fiji
TAF NFNA 221117Z 2212/2312 VRB03KT 9999 -SHRA SCT018 BKN045 PROB30 TEMPO 2212/2218 3000 TSRA BKN016 FEW018CB PROB30 TEMPO 2300/2310 3000 TSRA BKN016 FEW018CB

Mar-22@
12:00 UTC

Mar-22 @ 12:00 UTC

Mar-23@
12:00 UTC

Mar-23 @ 12:00 UTC

TAF NFNA 221117Z 2212/2312 VRB03KT 9999 -SHRA SCT018 BKN045
Wind
  • Variable at 3 KTS
Conditions
Light Rain
Cloud Levels
  • Scattered at 1,800' AGL
  • Broken at 4,500' AGL

Mar-22@
12:00 UTC

Mar-22 @ 12:00 UTC

Mar-22@
18:00 UTC

Mar-22 @ 18:00 UTC

PROB30 TEMPO 2212/2218 3000 TSRA BKN016 FEW018CB

Temporary - 30% Likelihood

Temporary - 30% Likelihood during this time.

Conditions
Thunderstorm, Rain
Cloud Levels
  • Broken at 1,600' AGL
  • Few at 1,800' AGL

Mar-23@
00:00 UTC

Mar-23 @ 00:00 UTC

Mar-23@
10:00 UTC

Mar-23 @ 10:00 UTC

PROB30 TEMPO 2300/2310 3000 TSRA BKN016 FEW018CB

Temporary - 30% Likelihood

Temporary - 30% Likelihood during this time.

Conditions
Thunderstorm, Rain
Cloud Levels
  • Broken at 1,600' AGL
  • Few at 1,800' AGL